createdAt,value
2022-10-13T00:02:13.689Z,100946.91
2022-10-13T00:05:02.170Z,100959.25
2022-10-13T00:07:50.700Z,100956.56
2022-10-13T00:10:41.637Z,100946.91
2022-10-13T00:13:30.240Z,100949.19
2022-10-13T00:16:20.433Z,100953.91
2022-10-13T00:19:12.858Z,100948.94
2022-10-13T00:22:03.436Z,100949.75
2022-10-13T00:24:52.406Z,100955.56
2022-10-13T00:27:42.531Z,100934.56
2022-10-13T00:30:31.038Z,100945.25
2022-10-13T00:33:20.098Z,100945.25
2022-10-13T00:36:08.814Z,100949.56
2022-10-13T00:38:58.707Z,100952.63
2022-10-13T00:41:47.213Z,100950.59
2022-10-13T00:45:06.806Z,100945.63
2022-10-13T00:47:58.047Z,100938.25
2022-10-13T00:50:47.048Z,100939.91
2022-10-13T00:53:38.492Z,100940.94
2022-10-13T00:56:27.590Z,100937.22
2022-10-13T00:59:23.020Z,100934.94
2022-10-13T01:02:13.014Z,100927.94
2022-10-13T01:05:02.338Z,100932.44
2022-10-13T01:07:51.577Z,100935.31
2022-10-13T01:10:47.314Z,100928.94
2022-10-13T01:13:39.150Z,100929.94
2022-10-13T01:16:33.829Z,100926.25
2022-10-13T01:19:43.284Z,100930.97
2022-10-13T01:22:42.714Z,100933.66
2022-10-13T01:25:46.602Z,100925.84
2022-10-13T01:28:45.780Z,100922.31
2022-10-13T01:31:39.293Z,100922.31
2022-10-13T01:34:33.028Z,100914.31
2022-10-13T01:37:24.992Z,100914.47
2022-10-13T01:40:17.387Z,100916.16
2022-10-13T01:43:09.309Z,100916.34
2022-10-13T01:46:00.495Z,100913.66
2022-10-13T01:48:50.706Z,100905.66
2022-10-13T01:51:40.650Z,100911.38
2022-10-13T01:54:29.072Z,100913.03
2022-10-13T01:57:33.053Z,100901.13
2022-10-13T02:00:23.198Z,100908.31
2022-10-13T02:03:19.607Z,100899.66
2022-10-13T02:06:16.862Z,100899.66
2022-10-13T02:09:08.047Z,100899.47
2022-10-13T02:12:02.388Z,100893.31
2022-10-13T02:14:52.682Z,100886.31
2022-10-13T02:17:41.901Z,100897.00
2022-10-13T02:20:30.862Z,100890.41
2022-10-13T02:23:20.891Z,100899.47
2022-10-13T02:26:09.251Z,100887.13
2022-10-13T02:28:58.139Z,100886.31
2022-10-13T02:31:50.047Z,100890.00
2022-10-13T02:34:38.592Z,100892.28
2022-10-13T02:37:27.178Z,100895.13
2022-10-13T02:40:17.139Z,100888.34
2022-10-13T02:43:05.859Z,100879.66
2022-10-13T02:45:54.236Z,100888.34
2022-10-13T02:48:42.863Z,100885.00
2022-10-13T02:51:34.081Z,100878.00
2022-10-13T02:54:24.696Z,100885.00
2022-10-13T02:57:14.440Z,100890.34
2022-10-13T03:00:05.682Z,100888.13
2022-10-13T03:02:54.163Z,100885.47
2022-10-13T03:05:42.702Z,100884.66
2022-10-13T03:08:31.380Z,100876.81
2022-10-13T03:11:19.783Z,100873.97
2022-10-13T03:14:09.708Z,100879.31
2022-10-13T03:16:58.217Z,100886.69
2022-10-13T03:19:47.159Z,100878.84
2022-10-13T03:22:35.956Z,100871.00
2022-10-13T03:25:24.458Z,100876.00
2022-10-13T03:28:12.946Z,100874.78
2022-10-13T03:31:03.111Z,100862.81
2022-10-13T03:33:52.975Z,100866.88
2022-10-13T03:36:41.492Z,100873.06
2022-10-13T03:39:30.040Z,100865.41
2022-10-13T03:42:19.251Z,100861.88
2022-10-13T03:45:09.928Z,100867.22
2022-10-13T03:47:59.792Z,100864.38
2022-10-13T03:50:48.329Z,100870.75
2022-10-13T03:53:37.140Z,100872.38
2022-10-13T03:56:27.579Z,100875.44
2022-10-13T03:59:19.840Z,100869.72
2022-10-13T04:02:08.450Z,100871.56
2022-10-13T04:04:58.244Z,100872.38
2022-10-13T04:07:46.710Z,100866.41
2022-10-13T04:10:35.263Z,100859.41
2022-10-13T04:13:23.709Z,100855.09
2022-10-13T04:16:15.867Z,100864.75
2022-10-13T04:19:06.160Z,100862.19
2022-10-13T04:21:56.051Z,100861.16
2022-10-13T04:24:44.457Z,100861.63
2022-10-13T04:27:32.893Z,100859.75
2022-10-13T04:30:21.331Z,100852.75
2022-10-13T04:33:09.815Z,100855.50
2022-10-13T04:35:58.546Z,100858.47
2022-10-13T04:38:48.440Z,100855.56
2022-10-13T04:41:36.848Z,100861.53
2022-10-13T04:44:25.322Z,100847.56
2022-10-13T04:47:13.828Z,100850.84
2022-10-13T04:50:02.248Z,100851.03
2022-10-13T04:52:50.721Z,100843.13
2022-10-13T04:55:40.713Z,100841.06
2022-10-13T04:58:29.781Z,100841.72
2022-10-13T05:01:22.072Z,100845.66
2022-10-13T05:04:12.036Z,100839.91
2022-10-13T05:07:17.083Z,100837.25
2022-10-13T05:10:07.194Z,100829.50
2022-10-13T05:12:57.146Z,100837.53
2022-10-13T05:15:45.645Z,100823.13
2022-10-13T05:18:34.386Z,100827.28
2022-10-13T05:21:24.728Z,100830.53
2022-10-13T05:24:16.107Z,100832.91
2022-10-13T05:27:09.146Z,100827.22
2022-10-13T05:29:59.013Z,100823.31
2022-10-13T05:32:51.477Z,100819.38
2022-10-13T05:35:42.231Z,100820.22
2022-10-13T05:38:30.797Z,100831.91
2022-10-13T05:41:19.660Z,100827.22
2022-10-13T05:44:10.466Z,100823.88
2022-10-13T05:47:04.958Z,100825.94
2022-10-13T05:49:56.124Z,100812.38
2022-10-13T05:52:44.814Z,100816.88
2022-10-13T05:55:33.544Z,100811.75
2022-10-13T05:58:22.133Z,100820.13
2022-10-13T06:01:13.270Z,100821.81
2022-10-13T06:04:05.968Z,100823.66
2022-10-13T06:06:54.446Z,100821.16
2022-10-13T06:09:43.380Z,100829.16
2022-10-13T06:12:31.859Z,100826.31
2022-10-13T06:15:25.637Z,100815.00
2022-10-13T06:18:16.323Z,100819.72
2022-10-13T06:21:06.486Z,100818.28
2022-10-13T06:23:54.957Z,100810.66
2022-10-13T06:26:43.528Z,100810.28
2022-10-13T06:29:33.336Z,100817.66
2022-10-13T06:32:22.568Z,100820.72
2022-10-13T06:35:11.571Z,100826.69
2022-10-13T06:38:01.599Z,100828.75
2022-10-13T06:40:50.167Z,100828.75
2022-10-13T06:43:40.474Z,100833.25
2022-10-13T06:46:29.068Z,100828.75
2022-10-13T06:49:17.952Z,100836.38
2022-10-13T06:52:06.869Z,100839.84
2022-10-13T06:54:56.675Z,100844.38
2022-10-13T06:57:45.099Z,100848.88
2022-10-13T07:00:33.571Z,100849.34
2022-10-13T07:03:22.411Z,100838.66
2022-10-13T07:06:13.425Z,100851.00
2022-10-13T07:09:04.573Z,100854.75
2022-10-13T07:11:54.574Z,100848.59
2022-10-13T07:14:43.913Z,100853.94
2022-10-13T07:17:32.536Z,100860.31
2022-10-13T07:20:21.385Z,100857.25
2022-10-13T07:23:09.818Z,100856.41
2022-10-13T07:25:59.754Z,100846.34
2022-10-13T07:28:49.902Z,100843.50
2022-10-13T07:31:38.346Z,100848.59
2022-10-13T07:34:26.826Z,100842.88
2022-10-13T07:37:15.507Z,100841.22
2022-10-13T07:40:04.067Z,100835.03
2022-10-13T07:42:52.503Z,100830.53
2022-10-13T07:45:42.370Z,100831.34
2022-10-13T07:48:30.818Z,100832.19
2022-10-13T07:51:19.253Z,100820.66
2022-10-13T07:54:08.661Z,100824.78
2022-10-13T07:56:57.375Z,100827.47
2022-10-13T07:59:46.885Z,100822.28
2022-10-13T08:02:36.800Z,100816.78
2022-10-13T08:05:25.282Z,100808.75
2022-10-13T08:08:13.629Z,100803.03
2022-10-13T08:11:03.435Z,100799.72
2022-10-13T08:13:53.040Z,100798.91
2022-10-13T08:16:48.575Z,100794.19
2022-10-13T08:19:41.147Z,100793.97
2022-10-13T08:22:29.581Z,100794.81
2022-10-13T08:25:17.961Z,100789.28
2022-10-13T08:28:06.501Z,100782.28
2022-10-13T08:30:55.503Z,100785.38
2022-10-13T08:33:47.312Z,100776.34
2022-10-13T08:36:37.151Z,100777.19
2022-10-13T08:39:26.125Z,100775.16
2022-10-13T08:42:18.392Z,100776.66
2022-10-13T08:45:40.975Z,100772.75
2022-10-13T08:48:19.619Z,100769.09
2022-10-13T08:51:09.238Z,100767.03
2022-10-13T08:53:59.169Z,100764.16
2022-10-13T08:56:50.899Z,100762.09
2022-10-13T08:59:39.557Z,100755.56
2022-10-13T09:02:32.365Z,100762.53
2022-10-13T09:05:31.541Z,100763.38
2022-10-13T09:08:21.746Z,100754.53
2022-10-13T09:11:13.405Z,100760.50
2022-10-13T09:14:03.560Z,100750.66
2022-10-13T09:16:53.458Z,100753.94
2022-10-13T09:19:41.841Z,100746.75
2022-10-13T09:22:32.054Z,100742.44
2022-10-13T09:25:22.913Z,100738.75
2022-10-13T09:28:18.618Z,100740.41
2022-10-13T09:31:11.714Z,100740.41
2022-10-13T09:34:04.075Z,100729.69
2022-10-13T09:37:00.355Z,100732.16
2022-10-13T09:39:49.438Z,100728.47
2022-10-13T09:42:37.963Z,100729.94
2022-10-13T09:45:30.350Z,100729.75
2022-10-13T09:48:23.435Z,100723.19
2022-10-13T09:51:31.925Z,100719.50
2022-10-13T09:54:29.014Z,100719.50
2022-10-13T09:57:24.697Z,100713.75
2022-10-13T10:00:24.620Z,100715.38
2022-10-13T10:03:18.529Z,100713.75
2022-10-13T10:09:06.967Z,100710.03
2022-10-13T10:11:56.683Z,100712.53
2022-10-13T10:14:45.083Z,100699.16
2022-10-13T10:17:38.374Z,100699.97
2022-10-13T10:20:39.658Z,100698.50
2022-10-13T10:23:36.335Z,100694.19
2022-10-13T10:26:32.521Z,100693.16
2022-10-13T10:29:27.769Z,100689.66
2022-10-13T10:32:29.518Z,100687.00
2022-10-13T10:35:22.055Z,100690.69
2022-10-13T10:38:22.545Z,100684.50
2022-10-13T10:41:17.783Z,100683.69
2022-10-13T10:44:10.150Z,100682.84
2022-10-13T10:47:02.781Z,100683.69
2022-10-13T10:49:52.716Z,100677.50
2022-10-13T10:52:44.821Z,100671.34
2022-10-13T10:55:37.674Z,100664.34
2022-10-13T10:58:33.354Z,100660.66
2022-10-13T11:01:30.662Z,100654.47
2022-10-13T11:04:35.618Z,100653.66
2022-10-13T11:07:58.185Z,100643.78
2022-10-13T11:10:47.971Z,100642.97
2022-10-13T11:13:51.384Z,100635.56
2022-10-13T11:16:42.206Z,100630.84
2022-10-13T11:19:32.157Z,100626.50
2022-10-13T11:22:23.274Z,100617.47
2022-10-13T11:25:39.420Z,100608.41
2022-10-13T11:28:51.661Z,100606.78
2022-10-13T11:31:52.128Z,100600.00
2022-10-13T11:34:58.570Z,100599.81
2022-10-13T11:38:05.864Z,100594.63
2022-10-13T11:41:09.084Z,100588.25
2022-10-13T11:44:05.105Z,100586.63
2022-10-13T11:47:01.419Z,100581.88
2022-10-13T11:50:02.034Z,100584.56
2022-10-13T11:52:59.860Z,100580.06
2022-10-13T11:55:51.309Z,100584.19
2022-10-13T11:58:43.663Z,100578.00
2022-10-13T12:01:33.428Z,100579.88
2022-10-13T12:04:23.073Z,100585.63
2022-10-13T12:07:12.954Z,100575.13
2022-10-13T12:10:01.632Z,100563.59
2022-10-13T12:12:50.690Z,100568.13
2022-10-13T12:15:41.619Z,100569.16
2022-10-13T12:18:34.166Z,100561.94
2022-10-13T12:21:24.811Z,100563.81
2022-10-13T12:24:17.312Z,100563.81
2022-10-13T12:27:12.704Z,100564.81
2022-10-13T12:30:01.493Z,100561.16
2022-10-13T12:32:51.382Z,100556.59
2022-10-13T12:35:41.249Z,100559.47
2022-10-13T12:38:29.707Z,100557.63
2022-10-13T12:41:20.143Z,100555.97
2022-10-13T12:44:11.724Z,100554.13
2022-10-13T12:47:03.856Z,100564.81
2022-10-13T12:49:52.702Z,100554.13
2022-10-13T12:52:42.561Z,100554.13
2022-10-13T12:55:31.288Z,100550.44
2022-10-13T12:58:26.185Z,100548.56
2022-10-13T13:01:29.429Z,100545.91
2022-10-13T13:04:19.594Z,100551.25
2022-10-13T13:07:23.998Z,100544.25
2022-10-13T13:10:21.629Z,100542.81
2022-10-13T13:13:16.388Z,100545.47
2022-10-13T13:16:18.319Z,100550.81
2022-10-13T13:19:06.881Z,100543.84
2022-10-13T13:21:55.337Z,100542.00
2022-10-13T13:24:44.429Z,100549.19
2022-10-13T13:27:38.612Z,100540.13
2022-10-13T13:30:27.953Z,100537.88
2022-10-13T13:33:16.414Z,100537.66
2022-10-13T13:36:05.195Z,100536.00
2022-10-13T13:38:54.361Z,100545.03
2022-10-13T13:41:42.830Z,100529.78
2022-10-13T13:44:32.683Z,100532.97
2022-10-13T13:47:23.439Z,100540.28
2022-10-13T13:50:15.638Z,100537.38
2022-10-13T13:53:05.016Z,100531.41
2022-10-13T13:55:53.590Z,100537.16
2022-10-13T13:58:42.073Z,100530.31
2022-10-13T14:01:32.586Z,100532.34
2022-10-13T14:04:21.135Z,100528.44
2022-10-13T14:07:09.713Z,100518.19
2022-10-13T14:10:01.020Z,100513.50
2022-10-13T14:12:50.811Z,100511.25
2022-10-13T14:15:39.295Z,100503.25
2022-10-13T14:18:29.819Z,100508.25
2022-10-13T14:21:18.448Z,100502.94
2022-10-13T14:24:07.654Z,100500.03
2022-10-13T14:26:57.309Z,100499.13
2022-10-13T14:29:45.811Z,100501.53
2022-10-13T14:32:35.195Z,100503.81
2022-10-13T14:35:25.082Z,100503.44
2022-10-13T14:38:14.010Z,100496.03
2022-10-13T14:41:02.916Z,100501.78
2022-10-13T14:43:54.580Z,100495.13
2022-10-13T14:46:43.143Z,100494.31
2022-10-13T14:49:32.421Z,100502.94
2022-10-13T14:52:22.176Z,100493.03
2022-10-13T14:55:11.044Z,100489.75
2022-10-13T14:57:59.545Z,100490.56
2022-10-13T15:00:48.054Z,100480.69
2022-10-13T15:03:36.523Z,100488.09
2022-10-13T15:06:26.457Z,100484.00
2022-10-13T15:09:16.474Z,100489.75
2022-10-13T15:12:05.322Z,100487.69
2022-10-13T15:14:53.799Z,100478.03
2022-10-13T15:17:42.416Z,100474.34
2022-10-13T15:20:30.869Z,100478.44
2022-10-13T15:23:19.356Z,100467.97
2022-10-13T15:26:09.448Z,100471.47
2022-10-13T15:28:57.960Z,100468.59
2022-10-13T15:31:46.462Z,100465.94
2022-10-13T15:34:35.104Z,100462.25
2022-10-13T15:37:23.569Z,100455.25
2022-10-13T15:40:13.071Z,100460.59
2022-10-13T15:43:02.977Z,100462.31
2022-10-13T15:45:55.779Z,100462.53
2022-10-13T15:48:44.275Z,100452.69
2022-10-13T15:51:34.474Z,100460.03
2022-10-13T15:54:23.551Z,100461.03
2022-10-13T15:57:12.052Z,100451.59
2022-10-13T16:00:03.474Z,100458.78
2022-10-13T16:02:53.500Z,100454.84
2022-10-13T16:05:42.174Z,100460.59
2022-10-13T16:08:30.789Z,100465.28
2022-10-13T16:11:21.378Z,100468.97
2022-10-13T16:14:10.534Z,100469.38
2022-10-13T16:17:02.608Z,100458.28
2022-10-13T16:19:51.534Z,100458.50
2022-10-13T16:22:40.024Z,100464.66
2022-10-13T16:25:29.315Z,100464.88
2022-10-13T16:28:23.296Z,100465.06
2022-10-13T16:31:13.626Z,100464.66
2022-10-13T16:34:03.479Z,100468.19
2022-10-13T16:36:54.123Z,100463.44
2022-10-13T16:39:46.503Z,100462.00
2022-10-13T16:42:37.623Z,100477.84
2022-10-13T16:45:41.230Z,100472.91
2022-10-13T16:48:34.798Z,100489.34
2022-10-13T16:51:28.124Z,100484.41
2022-10-13T16:54:16.633Z,100484.41
2022-10-13T16:57:05.089Z,100481.91
2022-10-13T16:59:53.788Z,100482.34
2022-10-13T17:02:42.338Z,100484.00
2022-10-13T17:05:30.793Z,100487.94
2022-10-13T17:08:20.731Z,100491.22
2022-10-13T17:11:09.651Z,100494.72
2022-10-13T17:13:59.113Z,100502.09
2022-10-13T17:16:47.574Z,100502.09
2022-10-13T17:19:36.091Z,100503.75
2022-10-13T17:22:25.700Z,100504.22
2022-10-13T17:25:15.548Z,100508.34
2022-10-13T17:28:04.122Z,100502.09
2022-10-13T17:30:59.700Z,100515.47
2022-10-13T17:33:48.880Z,100514.66
2022-10-13T17:36:40.035Z,100518.97
2022-10-13T17:39:28.487Z,100516.31
2022-10-13T17:42:18.165Z,100514.44
2022-10-13T17:45:07.262Z,100514.44
2022-10-13T17:47:58.660Z,100516.94
2022-10-13T17:50:47.336Z,100517.94
2022-10-13T17:53:36.110Z,100516.09
2022-10-13T17:56:26.070Z,100521.09
2022-10-13T17:59:16.640Z,100517.56
2022-10-13T18:02:05.093Z,100522.50
2022-10-13T18:04:54.731Z,100519.84
2022-10-13T18:07:43.189Z,100525.44
2022-10-13T18:10:50.843Z,100524.41
2022-10-13T18:13:41.667Z,100515.19
2022-10-13T18:16:31.531Z,100518.25
2022-10-13T18:19:20.660Z,100517.25
2022-10-13T18:22:09.147Z,100516.03
2022-10-13T18:24:57.526Z,100512.94
2022-10-13T18:27:45.922Z,100521.63
2022-10-13T18:30:34.951Z,100512.16
2022-10-13T18:33:24.776Z,100516.06
2022-10-13T18:36:15.662Z,100518.72
2022-10-13T18:39:06.121Z,100526.56
2022-10-13T18:41:56.260Z,100516.69
2022-10-13T18:44:44.973Z,100511.31
2022-10-13T18:47:33.495Z,100513.38
2022-10-13T18:50:23.354Z,100513.81
2022-10-13T18:53:12.571Z,100514.25
2022-10-13T18:56:04.987Z,100508.28
2022-10-13T18:58:59.561Z,100502.75
2022-10-13T19:01:48.726Z,100500.31
2022-10-13T19:04:37.194Z,100498.25
2022-10-13T19:07:27.012Z,100491.69
2022-10-13T19:10:15.703Z,100490.84
2022-10-13T19:13:04.702Z,100487.13
2022-10-13T19:15:53.255Z,100483.03
2022-10-13T19:18:42.381Z,100490.22
2022-10-13T19:21:31.992Z,100488.59
2022-10-13T19:24:22.316Z,100497.66
2022-10-13T19:27:10.767Z,100493.31
2022-10-13T19:29:59.746Z,100492.91
2022-10-13T19:32:48.263Z,100492.72
2022-10-13T19:35:41.236Z,100485.50
2022-10-13T19:38:29.664Z,100490.03
2022-10-13T19:41:19.886Z,100476.66
2022-10-13T19:44:08.408Z,100482.19
2022-10-13T19:46:57.068Z,100488.41
2022-10-13T19:49:45.489Z,100488.41
2022-10-13T19:52:34.110Z,100487.56
2022-10-13T19:55:22.544Z,100492.47
2022-10-13T19:58:12.693Z,100494.56
2022-10-13T20:01:04.094Z,100493.94
2022-10-13T20:03:53.040Z,100492.91
2022-10-13T20:06:41.720Z,100488.78
2022-10-13T20:09:30.229Z,100493.94
2022-10-13T20:12:18.756Z,100484.88
2022-10-13T20:15:10.116Z,100498.25
2022-10-13T20:17:59.698Z,100501.53
2022-10-13T20:20:50.674Z,100499.09
2022-10-13T20:23:40.594Z,100494.97
2022-10-13T20:26:29.263Z,100499.47
2022-10-13T20:29:17.920Z,100501.97
2022-10-13T20:32:07.968Z,100499.91
2022-10-13T20:34:56.673Z,100498.25
2022-10-13T20:37:45.290Z,100497.66
2022-10-13T20:40:33.936Z,100507.31
2022-10-13T20:43:25.732Z,100498.47
2022-10-13T20:46:15.934Z,100497.84
2022-10-13T20:49:12.571Z,100497.84
2022-10-13T20:52:01.247Z,100507.75
2022-10-13T20:54:49.683Z,100508.97
2022-10-13T20:58:42.381Z,100500.94
2022-10-13T21:01:31.113Z,100501.75
2022-10-13T21:04:20.863Z,100506.53
2022-10-13T21:07:09.592Z,100499.91
2022-10-13T21:09:58.070Z,100501.16
2022-10-13T21:12:46.546Z,100500.97
2022-10-13T21:15:38.279Z,100500.53
2022-10-13T21:18:26.896Z,100496.19
2022-10-13T21:21:17.974Z,100497.44
2022-10-13T21:24:08.322Z,100490.03
2022-10-13T21:27:02.410Z,100498.28
2022-10-13T21:29:54.502Z,100495.38
2022-10-13T21:32:42.897Z,100491.69
2022-10-13T21:35:31.326Z,100491.50
2022-10-13T21:38:21.066Z,100485.91
2022-10-13T21:41:11.789Z,100485.31
2022-10-13T21:44:00.414Z,100485.91
2022-10-13T21:46:48.806Z,100484.47
2022-10-13T21:49:37.531Z,100486.53
2022-10-13T21:52:26.473Z,100479.94
2022-10-13T21:55:16.350Z,100484.06
2022-10-13T21:58:05.505Z,100481.41
2022-10-13T22:00:54.032Z,100485.91
2022-10-13T22:03:42.598Z,100481.78
2022-10-13T22:06:32.002Z,100483.84
2022-10-13T22:09:20.602Z,100478.91
2022-10-13T22:12:10.654Z,100479.34
2022-10-13T22:14:59.154Z,100473.53
2022-10-13T22:17:48.709Z,100477.44
2022-10-13T22:20:37.289Z,100476.41
2022-10-13T22:23:25.766Z,100474.13
2022-10-13T22:26:14.779Z,100457.06
2022-10-13T22:29:07.151Z,100464.47
2022-10-13T22:31:58.138Z,100462.81
2022-10-13T22:34:46.661Z,100472.91
2022-10-13T22:37:35.136Z,100465.91
2022-10-13T22:40:23.608Z,100456.22
2022-10-13T22:43:12.143Z,100460.75
2022-10-13T22:46:02.881Z,100459.91
2022-10-13T22:48:52.093Z,100459.91
2022-10-13T22:51:40.552Z,100461.97
2022-10-13T22:54:29.197Z,100460.56
2022-10-13T22:57:17.718Z,100470.41
2022-10-13T23:00:07.285Z,100465.25
2022-10-13T23:02:58.197Z,100460.75
2022-10-13T23:05:48.616Z,100462.81
2022-10-13T23:08:38.636Z,100459.09
2022-10-13T23:11:27.127Z,100464.44
2022-10-13T23:14:15.600Z,100454.97
2022-10-13T23:17:04.342Z,100459.53
2022-10-13T23:19:54.179Z,100466.09
2022-10-13T23:22:44.828Z,100469.19
2022-10-13T23:25:34.981Z,100456.19
2022-10-13T23:28:23.450Z,100456.84
2022-10-13T23:31:15.450Z,100459.09
2022-10-13T23:34:03.956Z,100459.53
2022-10-13T23:36:53.689Z,100460.13
2022-10-13T23:39:42.146Z,100459.53
2022-10-13T23:42:30.607Z,100453.13
2022-10-13T23:45:19.094Z,100446.75
2022-10-13T23:48:08.316Z,100453.75
2022-10-13T23:50:57.232Z,100459.09
2022-10-13T23:53:47.693Z,100451.28
2022-10-13T23:56:36.144Z,100447.78
2022-10-13T23:59:24.747Z,100446.16
